Time;durP1;ratioP1;P1;durP2;ratioP2;P2;SDS_P1;SDS_P2;PMS_P1;PMS_P2;Temp;Humidity;BMP_temperature;BMP_pressure;BME280_temperature;BME280_humidity;BME280_pressure;Samples;Min_cycle;Max_cycle;Signal;HPM_P1;HPM_P2
2023/11/19 00:00:15;;;;;;;32.40;5.78;;;12.50;99.90;;;;;;5053184;28;20065;-74
2023/11/19 00:02:42;;;;;;;37.75;7.15;;;12.40;99.90;;;;;;5060358;28;20049;-73
2023/11/19 00:05:11;;;;;;;38.17;6.03;;;12.50;99.90;;;;;;5042955;28;20084;-74
2023/11/19 00:07:42;;;;;;;36.22;5.63;;;12.40;99.90;;;;;;5056376;28;20040;-75
2023/11/19 00:10:13;;;;;;;41.10;6.65;;;12.40;99.90;;;;;;5050866;28;20045;-74
2023/11/19 00:12:44;;;;;;;43.30;7.15;;;12.40;99.90;;;;;;5073677;28;20227;-73
2023/11/19 00:15:11;;;;;;;34.78;6.05;;;12.40;99.90;;;;;;5048389;28;20096;-73
2023/11/19 00:17:45;;;;;;;40.75;6.90;;;12.40;99.90;;;;;;5068169;28;20107;-73
2023/11/19 00:20:15;;;;;;;35.63;7.93;;;12.30;99.90;;;;;;5067348;28;20067;-73
2023/11/19 00:22:42;;;;;;;39.63;6.97;;;12.30;99.90;;;;;;5070459;28;20193;-73
2023/11/19 00:25:12;;;;;;;39.05;5.80;;;12.30;99.90;;;;;;5068992;28;20103;-73
2023/11/19 00:27:39;;;;;;;39.67;8.55;;;12.30;99.90;;;;;;5070409;28;20492;-72
2023/11/19 00:30:06;;;;;;;37.38;6.63;;;12.30;99.90;;;;;;5050103;28;20095;-72
2023/11/19 00:32:33;;;;;;;37.10;7.20;;;12.20;99.90;;;;;;5070444;28;20131;-74
2023/11/19 00:35:00;;;;;;;32.88;6.35;;;12.20;99.90;;;;;;5063890;28;20076;-73
2023/11/19 00:37:27;;;;;;;42.28;6.38;;;12.20;99.90;;;;;;5068807;28;20060;-73
2023/11/19 00:39:55;;;;;;;40.55;7.00;;;12.20;99.90;;;;;;5069058;28;20136;-73
2023/11/19 00:42:24;;;;;;;42.72;7.65;;;12.10;99.90;;;;;;5068926;28;20515;-72
2023/11/19 00:44:51;;;;;;;46.42;6.47;;;12.10;99.90;;;;;;5051328;28;20063;-73
2023/11/19 00:47:20;;;;;;;42.08;7.55;;;12.20;99.90;;;;;;5068890;28;20086;-73
2023/11/19 00:49:50;;;;;;;42.22;9.43;;;12.10;99.90;;;;;;5069174;28;20076;-72
2023/11/19 00:52:17;;;;;;;42.08;6.05;;;12.10;99.90;;;;;;5052251;28;20040;-72
2023/11/19 00:54:44;;;;;;;42.78;6.32;;;12.00;99.90;;;;;;5070343;28;20040;-72
2023/11/19 00:57:11;;;;;;;38.05;7.13;;;12.00;99.90;;;;;;5069789;28;20240;-71
2023/11/19 00:59:38;;;;;;;49.03;8.13;;;12.00;99.90;;;;;;5069418;28;20515;-72
2023/11/19 01:02:06;;;;;;;47.88;11.50;;;12.00;99.90;;;;;;5068367;28;20048;-72
2023/11/19 01:04:36;;;;;;;38.10;7.72;;;12.00;99.90;;;;;;5067121;28;20052;-73
2023/11/19 01:07:06;;;;;;;40.88;7.22;;;11.90;99.90;;;;;;5068558;28;20059;-72
2023/11/19 01:09:34;;;;;;;38.75;7.15;;;11.90;99.90;;;;;;5068541;28;20218;-72
2023/11/19 01:12:02;;;;;;;56.97;10.07;;;11.90;99.90;;;;;;5068996;28;20059;-73
2023/11/19 01:14:29;;;;;;;37.60;8.32;;;11.90;99.90;;;;;;5067655;28;20048;-73
2023/11/19 01:16:55;;;;;;;46.50;8.68;;;11.80;99.90;;;;;;5067983;28;20333;-73
2023/11/19 01:19:22;;;;;;;47.63;10.40;;;11.80;99.90;;;;;;5068079;28;20090;-72
2023/11/19 01:21:50;;;;;;;61.08;11.52;;;11.80;99.90;;;;;;5068869;28;20044;-72
2023/11/19 01:24:17;;;;;;;55.20;11.05;;;11.70;99.90;;;;;;5067981;28;20156;-73
2023/11/19 01:26:47;;;;;;;42.28;8.45;;;11.80;99.90;;;;;;5068504;28;20125;-73
2023/11/19 01:29:14;;;;;;;49.25;9.38;;;11.70;99.90;;;;;;5034623;28;20048;-73
2023/11/19 01:31:45;;;;;;;47.55;8.55;;;11.70;99.90;;;;;;5050891;28;20427;-73
2023/11/19 01:34:11;;;;;;;50.40;10.98;;;11.70;99.90;;;;;;5049951;28;20048;-73
2023/11/19 01:36:39;;;;;;;48.00;8.10;;;11.70;99.90;;;;;;5068043;28;20098;-73
2023/11/19 01:39:06;;;;;;;42.92;6.65;;;11.70;99.90;;;;;;5067909;28;20515;-73
2023/11/19 01:41:36;;;;;;;39.22;8.43;;;11.60;99.90;;;;;;5051099;28;20055;-73
2023/11/19 01:44:03;;;;;;;37.63;7.68;;;11.70;99.90;;;;;;5068109;28;20041;-73
2023/11/19 01:46:32;;;;;;;40.67;6.47;;;11.70;99.90;;;;;;5068045;28;20048;-72
2023/11/19 01:48:59;;;;;;;46.05;7.25;;;11.70;99.90;;;;;;5050770;28;20051;-73
2023/11/19 01:51:26;;;;;;;47.63;6.75;;;11.70;99.90;;;;;;5068694;28;20049;-74
2023/11/19 01:53:53;;;;;;;47.90;6.93;;;11.70;99.90;;;;;;5050014;28;20114;-73
2023/11/19 01:56:20;;;;;;;42.75;6.72;;;11.70;99.90;;;;;;5050413;28;20072;-73
2023/11/19 01:58:47;;;;;;;39.10;7.72;;;11.70;99.90;;;;;;5009551;28;1183940;-73
2023/11/19 02:01:14;;;;;;;44.35;6.72;;;11.70;99.90;;;;;;5034298;28;20545;-73
2023/11/19 02:03:41;;;;;;;39.03;6.68;;;11.70;99.90;;;;;;5068885;28;20350;-73
2023/11/19 02:06:10;;;;;;;36.33;7.13;;;11.70;99.90;;;;;;5068566;28;20101;-72
2023/11/19 02:08:38;;;;;;;38.75;6.10;;;11.70;99.90;;;;;;5051683;28;20045;-73
2023/11/19 02:11:07;;;;;;;45.00;8.45;;;11.70;99.90;;;;;;5068539;28;20522;-73
2023/11/19 02:13:36;;;;;;;34.95;6.70;;;11.70;99.90;;;;;;5050992;28;20055;-73
2023/11/19 02:16:03;;;;;;;53.45;7.45;;;11.70;99.90;;;;;;4716815;28;10000704;-72
2023/11/19 02:18:30;;;;;;;40.22;6.45;;;11.70;99.90;;;;;;5051298;28;20036;-72
2023/11/19 02:20:57;;;;;;;39.08;6.95;;;11.70;99.90;;;;;;5068739;28;20666;-73
2023/11/19 02:23:31;;;;;;;43.75;7.60;;;11.70;99.90;;;;;;5068585;28;20189;-72
2023/11/19 02:26:14;;;;;;;33.97;5.93;;;11.70;99.90;;;;;;5051264;28;20052;-72
2023/11/19 02:28:41;;;;;;;27.30;6.43;;;11.70;99.90;;;;;;5068058;28;20407;-72
2023/11/19 02:31:09;;;;;;;27.83;6.43;;;11.70;99.90;;;;;;5050509;28;20106;-72
2023/11/19 02:33:37;;;;;;;44.45;6.38;;;11.70;99.90;;;;;;5068051;28;20508;-72
2023/11/19 02:36:08;;;;;;;42.53;6.95;;;11.70;99.90;;;;;;5034356;28;20113;-73
2023/11/19 02:38:35;;;;;;;42.50;5.78;;;11.70;99.90;;;;;;5050313;28;20052;-72
2023/11/19 02:41:06;;;;;;;40.65;6.22;;;11.70;99.90;;;;;;5067690;28;20051;-72
2023/11/19 02:43:34;;;;;;;30.80;6.38;;;11.70;99.90;;;;;;5068373;28;20094;-73
2023/11/19 02:46:02;;;;;;;34.17;5.65;;;11.70;99.90;;;;;;5050206;28;20048;-72
2023/11/19 02:48:43;;;;;;;31.90;5.55;;;11.70;99.90;;;;;;5058084;28;20212;-71
2023/11/19 02:51:09;;;;;;;33.42;6.72;;;11.70;99.90;;;;;;5067757;28;20193;-72
2023/11/19 02:53:37;;;;;;;36.67;5.70;;;11.70;99.90;;;;;;5067226;28;20044;-73
2023/11/19 02:59:08;;;;;;;38.47;7.38;;;11.70;99.90;;;;;;5018685;28;20054;-72
2023/11/19 03:01:35;;;;;;;38.47;6.10;;;11.70;99.90;;;;;;5012888;28;20045;-73
2023/11/19 03:04:03;;;;;;;34.70;5.72;;;11.70;99.90;;;;;;5027962;28;20528;-72
2023/11/19 03:06:31;;;;;;;39.05;7.50;;;11.70;99.90;;;;;;5027770;28;20058;-73
2023/11/19 03:08:58;;;;;;;28.67;5.40;;;11.70;99.90;;;;;;5028212;28;20077;-70
2023/11/19 03:11:25;;;;;;;33.88;5.82;;;11.70;99.90;;;;;;5027874;28;20124;-72
2023/11/19 03:13:52;;;;;;;32.63;5.38;;;11.70;99.90;;;;;;5028012;28;20052;-72
2023/11/19 03:16:18;;;;;;;35.45;6.90;;;11.80;99.90;;;;;;5028379;28;20061;-72
2023/11/19 03:18:45;;;;;;;37.88;5.43;;;11.80;99.90;;;;;;5027247;28;20045;-72
2023/11/19 03:21:12;;;;;;;35.13;7.15;;;11.80;99.90;;;;;;5027556;28;20297;-74
2023/11/19 03:23:40;;;;;;;26.83;4.65;;;11.90;99.90;;;;;;5024839;28;20049;-74
2023/11/19 03:26:08;;;;;;;46.60;6.57;;;11.90;99.90;;;;;;5027154;28;20469;-73
2023/11/19 03:28:34;;;;;;;40.15;6.40;;;11.90;99.90;;;;;;5027479;28;20088;-71
2023/11/19 03:31:04;;;;;;;46.63;6.75;;;11.80;99.90;;;;;;5028136;28;20493;-73
2023/11/19 03:33:31;;;;;;;35.58;6.65;;;11.80;99.90;;;;;;5027071;28;20057;-72
2023/11/19 03:35:58;;;;;;;36.80;5.38;;;11.80;99.90;;;;;;5027717;28;20061;-72
2023/11/19 03:38:24;;;;;;;34.67;5.47;;;11.70;99.90;;;;;;5027913;28;20069;-72
2023/11/19 03:40:51;;;;;;;32.33;5.93;;;11.70;99.90;;;;;;5027701;28;20372;-72
2023/11/19 03:43:21;;;;;;;43.08;7.07;;;11.70;99.90;;;;;;5026442;28;20404;-74
2023/11/19 03:45:48;;;;;;;37.88;6.13;;;11.70;99.90;;;;;;5027181;28;20386;-74
2023/11/19 03:48:18;;;;;;;34.45;5.80;;;11.70;99.90;;;;;;5027417;28;20042;-74
2023/11/19 03:50:46;;;;;;;33.25;6.28;;;11.80;99.90;;;;;;5027663;28;20056;-72
2023/11/19 03:53:13;;;;;;;30.27;5.72;;;11.80;99.90;;;;;;5027162;28;20049;-72
2023/11/19 03:55:40;;;;;;;40.03;5.80;;;11.80;99.90;;;;;;5025400;28;20048;-71
2023/11/19 03:58:06;;;;;;;35.30;5.50;;;11.80;99.90;;;;;;5009800;28;20060;-74
2023/11/19 04:00:33;;;;;;;54.15;8.23;;;11.80;99.90;;;;;;5061229;28;20060;-74
2023/11/19 04:03:00;;;;;;;39.00;7.05;;;11.80;99.90;;;;;;5067380;28;20102;-73
2023/11/19 04:05:27;;;;;;;28.73;5.30;;;11.80;99.90;;;;;;5062203;28;20495;-73
2023/11/19 04:07:54;;;;;;;38.40;7.57;;;11.80;99.90;;;;;;5050649;28;20103;-74
2023/11/19 04:10:22;;;;;;;33.67;5.25;;;11.80;99.90;;;;;;5064514;28;20040;-74
2023/11/19 04:12:49;;;;;;;49.60;8.05;;;11.80;99.90;;;;;;5067621;28;20129;-74
2023/11/19 04:15:16;;;;;;;37.10;6.80;;;11.80;99.90;;;;;;5066682;28;20098;-73
2023/11/19 04:17:43;;;;;;;29.35;5.43;;;11.80;99.90;;;;;;5067289;28;20064;-74
2023/11/19 04:20:13;;;;;;;36.85;6.13;;;11.80;99.90;;;;;;5067331;28;20048;-74
2023/11/19 04:22:40;;;;;;;41.78;5.88;;;11.80;99.90;;;;;;5067730;28;20048;-73
2023/11/19 04:25:08;;;;;;;41.72;6.93;;;11.80;99.90;;;;;;5064614;28;20072;-73
2023/11/19 04:27:35;;;;;;;36.70;5.55;;;11.80;99.90;;;;;;5033268;28;20057;-74
2023/11/19 04:30:02;;;;;;;39.85;6.40;;;11.80;99.90;;;;;;5067029;28;20040;-73
2023/11/19 04:32:29;;;;;;;30.77;6.80;;;11.80;99.90;;;;;;5067432;28;20044;-74
2023/11/19 04:34:56;;;;;;;36.45;6.15;;;11.80;99.90;;;;;;5066172;28;20131;-74
2023/11/19 04:37:22;;;;;;;34.63;6.28;;;11.80;99.90;;;;;;5067150;28;20048;-74
2023/11/19 04:39:49;;;;;;;42.88;5.30;;;11.80;99.90;;;;;;5066588;28;20048;-74
2023/11/19 04:42:17;;;;;;;46.47;6.95;;;11.80;99.90;;;;;;5049494;28;20044;-73
2023/11/19 04:44:44;;;;;;;34.08;7.47;;;11.80;99.90;;;;;;5066407;28;20048;-74
2023/11/19 04:47:11;;;;;;;37.13;6.55;;;11.70;99.90;;;;;;5049234;28;20450;-74
2023/11/19 04:49:44;;;;;;;35.15;6.47;;;11.80;99.90;;;;;;5066042;28;20044;-74
2023/11/19 04:52:11;;;;;;;31.60;5.47;;;11.80;99.90;;;;;;5068271;28;20041;-73
2023/11/19 04:54:43;;;;;;;38.83;6.82;;;11.90;99.90;;;;;;5070069;28;20324;-73
2023/11/19 04:57:10;;;;;;;35.30;6.20;;;11.80;99.90;;;;;;5070387;28;20545;-74
2023/11/19 04:59:37;;;;;;;33.70;5.93;;;11.80;99.90;;;;;;5052830;28;20518;-72
2023/11/19 05:02:05;;;;;;;42.67;5.53;;;11.80;99.90;;;;;;5070497;28;20131;-73
2023/11/19 05:04:31;;;;;;;28.45;5.10;;;11.80;99.90;;;;;;5070395;28;20044;-73
2023/11/19 05:06:58;;;;;;;29.23;5.07;;;11.80;99.90;;;;;;5060271;28;20084;-73
2023/11/19 05:09:25;;;;;;;37.75;6.93;;;11.80;99.90;;;;;;5051537;28;20071;-71
2023/11/19 05:11:52;;;;;;;26.15;5.03;;;11.80;99.90;;;;;;5070562;28;20300;-72
2023/11/19 05:14:20;;;;;;;25.00;4.68;;;11.80;99.90;;;;;;5070114;28;20488;-72
2023/11/19 05:16:47;;;;;;;39.53;6.43;;;11.80;99.90;;;;;;5052028;28;20509;-72
2023/11/19 05:19:14;;;;;;;41.10;6.35;;;11.80;99.90;;;;;;5069842;28;20539;-72
2023/11/19 05:21:44;;;;;;;31.73;5.72;;;11.70;99.90;;;;;;5070023;28;20051;-72
2023/11/19 05:24:13;;;;;;;28.88;5.53;;;11.80;99.90;;;;;;5070133;28;20090;-71
2023/11/19 05:26:40;;;;;;;31.58;5.30;;;11.70;99.90;;;;;;5069239;28;20048;-72
2023/11/19 05:29:07;;;;;;;45.00;5.30;;;11.80;99.90;;;;;;5070384;28;20048;-72
2023/11/19 05:31:34;;;;;;;33.95;5.60;;;11.80;99.90;;;;;;5051999;28;20098;-71
2023/11/19 05:34:03;;;;;;;28.70;5.82;;;11.80;99.90;;;;;;5067052;28;20040;-72
2023/11/19 05:36:30;;;;;;;30.25;5.15;;;11.80;99.90;;;;;;5069601;28;20259;-71
2023/11/19 05:38:57;;;;;;;38.92;5.45;;;11.80;99.90;;;;;;5069981;28;20044;-72
2023/11/19 05:41:24;;;;;;;33.08;6.07;;;11.80;99.90;;;;;;5072604;28;20260;-72
2023/11/19 05:43:51;;;;;;;32.92;6.60;;;11.80;99.90;;;;;;5068494;28;20491;-72
2023/11/19 05:46:18;;;;;;;40.05;6.38;;;11.80;99.90;;;;;;5069577;28;20052;-72
2023/11/19 05:48:47;;;;;;;21.02;5.20;;;11.90;99.90;;;;;;5069046;28;20072;-72
2023/11/19 05:51:15;;;;;;;32.50;5.30;;;11.90;99.90;;;;;;5069894;28;20479;-71
2023/11/19 05:53:42;;;;;;;23.23;5.43;;;12.00;99.90;;;;;;5069300;28;20089;-73
2023/11/19 05:56:09;;;;;;;26.35;5.15;;;12.00;99.90;;;;;;5069354;28;20045;-72
2023/11/19 05:58:37;;;;;;;33.92;5.50;;;12.00;99.90;;;;;;5069053;28;20044;-72
2023/11/19 06:01:07;;;;;;;30.60;5.30;;;12.00;99.90;;;;;;5069357;28;20410;-72
2023/11/19 06:03:34;;;;;;;27.50;5.38;;;12.10;99.90;;;;;;5067568;28;20056;-71
2023/11/19 06:06:01;;;;;;;49.63;8.70;;;12.20;99.90;;;;;;5069568;28;20044;-72
2023/11/19 06:08:28;;;;;;;34.90;5.97;;;12.20;99.90;;;;;;5069194;28;20049;-72
2023/11/19 06:10:54;;;;;;;34.63;6.00;;;12.20;99.90;;;;;;5069377;28;20049;-72
2023/11/19 06:13:21;;;;;;;44.85;6.40;;;12.20;99.90;;;;;;5068526;28;20442;-72
2023/11/19 06:15:51;;;;;;;30.02;4.57;;;12.20;99.90;;;;;;5069285;28;20051;-71
2023/11/19 06:18:19;;;;;;;27.80;5.82;;;12.10;99.90;;;;;;5068517;28;20135;-72
2023/11/19 06:20:47;;;;;;;39.88;8.25;;;12.10;99.90;;;;;;5069220;28;20223;-72
2023/11/19 06:23:14;;;;;;;40.47;7.10;;;12.10;99.90;;;;;;5068768;28;20135;-73
2023/11/19 06:25:40;;;;;;;33.22;4.95;;;12.10;99.90;;;;;;5068894;28;20051;-73
2023/11/19 06:28:07;;;;;;;28.30;5.07;;;12.10;99.90;;;;;;5050684;28;20048;-72
2023/11/19 06:30:35;;;;;;;32.22;5.13;;;12.10;99.90;;;;;;5069089;28;20071;-72
2023/11/19 06:33:03;;;;;;;25.92;5.15;;;12.00;99.90;;;;;;5068701;28;20139;-72
2023/11/19 06:35:35;;;;;;;27.15;4.70;;;12.00;99.90;;;;;;5068104;28;20090;-73
2023/11/19 06:38:06;;;;;;;23.13;5.25;;;12.00;99.90;;;;;;5068564;28;20053;-72
2023/11/19 06:40:33;;;;;;;33.72;5.82;;;12.00;99.90;;;;;;5068272;28;20052;-72
2023/11/19 06:43:00;;;;;;;29.05;4.07;;;12.00;99.90;;;;;;5068300;28;20052;-73
2023/11/19 06:45:27;;;;;;;30.60;5.40;;;11.90;99.90;;;;;;5067888;28;20048;-73
2023/11/19 06:47:53;;;;;;;33.28;4.53;;;12.00;99.90;;;;;;5068130;28;20510;-72
2023/11/19 06:50:20;;;;;;;35.00;5.40;;;11.90;99.90;;;;;;5067974;28;20044;-72
2023/11/19 06:52:47;;;;;;;31.70;5.93;;;11.90;99.90;;;;;;5068233;28;20048;-72
2023/11/19 06:55:14;;;;;;;36.10;5.55;;;11.90;99.90;;;;;;5067768;28;20536;-73
2023/11/19 06:57:41;;;;;;;41.83;4.90;;;11.90;99.90;;;;;;5068176;28;20102;-73
2023/11/19 07:00:08;;;;;;;30.70;4.80;;;11.90;99.90;;;;;;5033608;28;20465;-73
2023/11/19 07:02:35;;;;;;;30.85;5.35;;;11.90;99.90;;;;;;5068348;28;20045;-72
2023/11/19 07:05:04;;;;;;;34.80;6.72;;;11.90;99.90;;;;;;5067935;28;20119;-72
2023/11/19 07:07:35;;;;;;;24.35;5.45;;;11.90;99.90;;;;;;5050447;28;20052;-72
2023/11/19 07:10:04;;;;;;;24.70;4.35;;;11.90;99.90;;;;;;5068177;28;20405;-72
2023/11/19 07:12:31;;;;;;;27.17;4.82;;;11.90;99.90;;;;;;5068100;28;20503;-72
2023/11/19 07:14:57;;;;;;;32.00;4.38;;;11.80;99.90;;;;;;5067249;28;20123;-72
2023/11/19 07:17:24;;;;;;;30.98;5.15;;;11.80;99.90;;;;;;5067808;28;20286;-72
2023/11/19 07:19:51;;;;;;;19.75;4.32;;;11.70;99.90;;;;;;5067439;28;20063;-71
2023/11/19 07:22:18;;;;;;;28.90;4.15;;;11.70;99.90;;;;;;5068000;28;20052;-72
2023/11/19 07:24:45;;;;;;;41.20;5.57;;;11.70;99.90;;;;;;5067817;28;20049;-72
2023/11/19 07:27:12;;;;;;;28.58;5.38;;;11.70;99.90;;;;;;5071681;28;20048;-72
2023/11/19 07:29:39;;;;;;;25.30;4.65;;;11.80;99.90;;;;;;5067909;28;20048;-72
2023/11/19 07:32:06;;;;;;;25.75;4.47;;;11.80;99.90;;;;;;5067136;28;20110;-72
2023/11/19 07:34:33;;;;;;;30.00;4.25;;;11.90;99.90;;;;;;5067190;28;20521;-72
2023/11/19 07:37:02;;;;;;;25.42;4.07;;;11.90;99.90;;;;;;5049736;28;20451;-72
2023/11/19 07:39:29;;;;;;;17.30;3.22;;;11.80;99.90;;;;;;5049827;28;20481;-71
2023/11/19 07:41:56;;;;;;;24.75;3.80;;;11.90;99.90;;;;;;5067164;28;20040;-72
2023/11/19 07:44:23;;;;;;;19.98;4.50;;;11.80;99.90;;;;;;5049515;28;20048;-72
2023/11/19 07:46:49;;;;;;;25.77;4.53;;;11.90;99.90;;;;;;5049375;28;20094;-70
2023/11/19 07:49:17;;;;;;;16.10;3.53;;;11.90;99.90;;;;;;5067389;28;20142;-72
2023/11/19 07:51:44;;;;;;;20.75;4.03;;;11.90;99.90;;;;;;5067531;28;20144;-72
2023/11/19 07:54:10;;;;;;;26.83;4.72;;;11.90;99.90;;;;;;5067292;28;20041;-72
2023/11/19 07:56:37;;;;;;;17.25;3.85;;;11.90;99.90;;;;;;5066877;28;20503;-71
2023/11/19 07:59:04;;;;;;;23.65;3.38;;;12.00;99.90;;;;;;5067287;28;20067;-71
2023/11/19 08:01:31;;;;;;;30.52;3.67;;;12.00;99.90;;;;;;5049967;28;20051;-72
2023/11/19 08:03:58;;;;;;;28.52;4.65;;;12.00;99.90;;;;;;5056167;28;20048;-72
2023/11/19 08:06:26;;;;;;;24.63;4.32;;;12.00;99.90;;;;;;5049523;28;20049;-72
2023/11/19 08:08:53;;;;;;;14.35;3.45;;;11.90;99.90;;;;;;4697372;28;10000663;-72
2023/11/19 08:11:19;;;;;;;32.60;4.60;;;12.00;99.90;;;;;;5063450;28;20554;-74
2023/11/19 08:13:47;;;;;;;18.52;5.18;;;12.00;99.90;;;;;;5029059;28;20044;-73
2023/11/19 08:16:14;;;;;;;39.85;5.40;;;12.00;99.90;;;;;;5046255;28;20091;-74
2023/11/19 08:18:43;;;;;;;32.63;4.13;;;12.00;99.90;;;;;;5063659;28;20071;-73
2023/11/19 08:21:10;;;;;;;31.58;4.70;;;12.10;99.90;;;;;;5063606;28;20499;-72
2023/11/19 08:23:37;;;;;;;24.45;4.32;;;12.10;99.90;;;;;;5056792;28;20053;-72
2023/11/19 08:26:05;;;;;;;32.72;4.25;;;12.20;99.90;;;;;;5038402;28;20056;-72
2023/11/19 08:28:34;;;;;;;26.58;3.90;;;12.20;99.90;;;;;;5067460;28;20539;-72
2023/11/19 08:31:01;;;;;;;25.48;4.90;;;12.20;99.90;;;;;;5046745;28;20110;-72
2023/11/19 08:33:28;;;;;;;22.83;4.30;;;12.30;99.90;;;;;;5059905;28;20048;-72
2023/11/19 08:35:54;;;;;;;15.95;4.07;;;12.30;99.90;;;;;;5056695;28;20044;-72
2023/11/19 08:38:21;;;;;;;22.40;3.83;;;12.30;99.90;;;;;;5061018;28;20126;-71
2023/11/19 08:40:52;;;;;;;22.00;4.15;;;12.30;99.90;;;;;;5064865;28;20438;-73
2023/11/19 08:43:18;;;;;;;25.85;5.03;;;12.30;99.90;;;;;;5059385;28;20052;-73
2023/11/19 08:45:45;;;;;;;19.70;4.40;;;12.20;99.90;;;;;;5035527;28;20079;-73
2023/11/19 08:48:12;;;;;;;18.40;4.30;;;12.30;99.90;;;;;;5065054;28;20044;-73
2023/11/19 08:50:39;;;;;;;22.38;3.90;;;12.30;99.90;;;;;;5069325;28;20048;-72
2023/11/19 08:53:06;;;;;;;20.30;3.70;;;12.30;99.90;;;;;;5072134;28;20059;-72
2023/11/19 08:55:33;;;;;;;17.40;4.22;;;12.30;99.90;;;;;;5062251;28;20476;-73
2023/11/19 08:58:01;;;;;;;28.80;3.72;;;12.40;99.90;;;;;;5042475;28;20132;-72
2023/11/19 09:00:27;;;;;;;30.70;4.70;;;12.40;99.90;;;;;;5065648;28;20092;-72
2023/11/19 09:02:54;;;;;;;24.48;3.72;;;12.50;99.90;;;;;;5048723;28;20045;-72
2023/11/19 09:05:21;;;;;;;26.48;4.65;;;12.60;99.90;;;;;;5067448;28;20075;-72
2023/11/19 09:07:49;;;;;;;27.63;3.53;;;12.60;99.90;;;;;;5068320;28;20060;-72
2023/11/19 09:10:16;;;;;;;23.27;4.50;;;12.70;99.90;;;;;;5064511;28;20075;-73
2023/11/19 09:12:43;;;;;;;24.65;4.32;;;12.70;99.90;;;;;;5066191;28;20114;-72
2023/11/19 09:15:13;;;;;;;21.15;3.88;;;12.80;99.90;;;;;;5063530;28;20097;-72
2023/11/19 09:17:40;;;;;;;23.35;4.55;;;12.90;99.90;;;;;;5050981;28;20041;-72
2023/11/19 09:20:08;;;;;;;34.58;5.05;;;12.80;99.90;;;;;;5058993;28;20083;-72
2023/11/19 09:22:35;;;;;;;22.88;4.45;;;12.90;99.90;;;;;;5064665;28;20052;-71
2023/11/19 09:25:02;;;;;;;31.02;5.93;;;12.90;99.90;;;;;;5059057;28;20068;-72
2023/11/19 09:27:29;;;;;;;29.38;6.07;;;12.90;99.90;;;;;;5043573;28;20507;-72
2023/11/19 09:29:58;;;;;;;28.50;5.63;;;13.00;99.90;;;;;;5065043;28;20084;-72
2023/11/19 09:32:25;;;;;;;32.95;5.45;;;13.10;99.90;;;;;;5069503;28;20044;-71
2023/11/19 09:34:52;;;;;;;27.17;5.22;;;13.20;99.90;;;;;;5043937;28;20438;-71
2023/11/19 09:37:18;;;;;;;24.15;5.20;;;13.10;99.90;;;;;;5069718;28;20041;-72
2023/11/19 09:39:48;;;;;;;30.35;4.75;;;13.20;99.90;;;;;;5052216;28;20072;-71
2023/11/19 09:42:15;;;;;;;25.15;6.32;;;13.20;99.90;;;;;;5069683;28;20404;-71
2023/11/19 09:44:42;;;;;;;30.52;5.18;;;13.20;99.90;;;;;;5064992;28;20048;-71
2023/11/19 09:47:11;;;;;;;17.98;3.67;;;13.30;99.90;;;;;;5033004;28;20420;-72
2023/11/19 09:49:38;;;;;;;32.20;4.70;;;13.30;99.90;;;;;;5069523;28;20135;-73
2023/11/19 09:52:05;;;;;;;39.72;6.88;;;13.30;99.90;;;;;;5069447;28;20036;-73
2023/11/19 09:54:32;;;;;;;21.50;4.15;;;13.30;99.90;;;;;;5069453;28;20121;-73
2023/11/19 09:57:02;;;;;;;34.90;4.82;;;13.40;99.90;;;;;;5051482;28;20604;-73
2023/11/19 09:59:30;;;;;;;18.15;6.10;;;13.40;99.90;;;;;;5052086;28;20411;-73
2023/11/19 10:01:56;;;;;;;24.92;5.65;;;13.30;99.90;;;;;;5069176;28;20075;-73
2023/11/19 10:04:24;;;;;;;27.30;5.03;;;13.40;99.90;;;;;;5049129;28;20057;-73
2023/11/19 10:06:51;;;;;;;30.60;4.28;;;13.50;99.90;;;;;;5059458;28;20102;-72
2023/11/19 10:09:18;;;;;;;18.20;4.35;;;13.50;99.90;;;;;;5043134;28;20060;-72
2023/11/19 10:11:45;;;;;;;23.35;3.95;;;13.50;99.90;;;;;;5048174;28;20055;-72
2023/11/19 10:14:13;;;;;;;29.27;4.78;;;13.50;99.90;;;;;;5062369;28;20132;-73
2023/11/19 10:16:40;;;;;;;27.38;4.93;;;13.40;99.90;;;;;;5049153;28;20032;-72
2023/11/19 10:19:06;;;;;;;23.95;5.03;;;13.50;99.90;;;;;;5051189;28;20102;-73
2023/11/19 10:21:33;;;;;;;29.15;3.80;;;13.50;99.90;;;;;;5068179;28;20557;-74
2023/11/19 10:24:00;;;;;;;27.27;4.40;;;13.50;99.90;;;;;;5067780;28;20051;-74
2023/11/19 10:26:27;;;;;;;25.02;3.90;;;13.50;99.90;;;;;;5050991;28;20048;-74
2023/11/19 10:28:55;;;;;;;22.77;4.60;;;13.50;99.90;;;;;;5057611;28;20139;-73
2023/11/19 10:31:26;;;;;;;13.23;3.45;;;13.60;99.90;;;;;;5067828;28;20072;-73
2023/11/19 10:33:53;;;;;;;25.70;4.30;;;13.70;99.90;;;;;;5057945;28;20114;-71
2023/11/19 10:36:19;;;;;;;26.48;4.40;;;13.70;99.90;;;;;;5064170;28;20109;-73
2023/11/19 10:38:53;;;;;;;24.00;3.38;;;13.70;99.90;;;;;;5061093;28;20052;-73
2023/11/19 10:41:30;;;;;;;18.17;3.88;;;13.70;99.90;;;;;;5061322;28;20483;-72
2023/11/19 10:44:00;;;;;;;15.73;3.80;;;13.70;99.90;;;;;;5062024;28;20072;-72
2023/11/19 10:46:39;;;;;;;31.88;5.00;;;13.80;99.90;;;;;;5061232;28;20060;-72
2023/11/19 10:49:07;;;;;;;17.67;3.30;;;13.80;99.90;;;;;;5055532;28;20095;-72
2023/11/19 10:51:34;;;;;;;16.92;2.78;;;13.90;99.90;;;;;;5047387;28;20139;-72
2023/11/19 10:54:06;;;;;;;22.38;3.70;;;13.90;99.90;;;;;;5060319;28;20547;-72
2023/11/19 10:56:33;;;;;;;18.35;2.72;;;14.00;99.90;;;;;;5063196;28;20056;-72
2023/11/19 10:59:00;;;;;;;17.90;2.88;;;14.10;99.90;;;;;;5057944;28;20057;-72
2023/11/19 11:01:33;;;;;;;16.55;2.28;;;14.10;99.90;;;;;;5067695;28;20084;-70
2023/11/19 11:04:00;;;;;;;17.17;3.35;;;14.10;99.90;;;;;;5054306;28;20055;-72
2023/11/19 11:06:27;;;;;;;14.38;3.08;;;14.20;99.90;;;;;;5050105;28;20095;-71
2023/11/19 11:08:54;;;;;;;20.80;3.78;;;14.20;99.90;;;;;;5065071;28;20052;-71
2023/11/19 11:11:21;;;;;;;15.85;3.30;;;14.30;99.90;;;;;;5060506;28;20483;-71
2023/11/19 11:13:49;;;;;;;14.48;4.20;;;14.30;99.90;;;;;;5063781;28;20487;-71
2023/11/19 11:16:18;;;;;;;10.15;2.85;;;14.30;99.90;;;;;;5052580;28;20514;-71
2023/11/19 11:18:46;;;;;;;18.85;2.67;;;14.30;99.90;;;;;;5065876;28;20442;-72
2023/11/19 11:21:17;;;;;;;20.20;3.25;;;14.30;99.90;;;;;;5036788;28;20551;-70
2023/11/19 11:24:04;;;;;;;22.42;4.30;;;14.20;99.90;;;;;;5058984;28;20633;-70
2023/11/19 11:26:49;;;;;;;18.86;3.44;;;14.20;99.90;;;;;;4685493;28;10001447;-71
2023/11/19 11:29:31;;;;;;;17.45;3.60;;;14.10;99.90;;;;;;5056542;28;20466;-72
2023/11/19 11:32:24;;;;;;;25.83;3.97;;;14.10;99.90;;;;;;5061685;28;20087;-71
2023/11/19 11:35:24;;;;;;;15.47;3.43;;;14.10;99.90;;;;;;5013097;28;20044;-70
2023/11/19 11:37:56;;;;;;;12.23;2.22;;;14.10;99.90;;;;;;5049272;28;20281;-70
2023/11/19 11:40:23;;;;;;;20.05;3.25;;;14.10;99.90;;;;;;5049693;28;20067;-70
2023/11/19 11:42:51;;;;;;;19.33;3.60;;;14.10;99.90;;;;;;5063571;28;20084;-71
2023/11/19 11:45:19;;;;;;;15.68;2.67;;;14.10;99.90;;;;;;5066537;28;20127;-70
2023/11/19 11:48:14;;;;;;;20.80;3.83;;;14.10;99.90;;;;;;5059781;28;20487;-70
2023/11/19 11:50:55;;;;;;;23.73;6.20;;;14.10;99.90;;;;;;5049132;28;20177;-70
2023/11/19 11:53:24;;;;;;;22.90;3.33;;;14.10;99.90;;;;;;5049360;28;20173;-71
2023/11/19 11:55:52;;;;;;;23.45;3.75;;;14.10;99.90;;;;;;5066976;28;20053;-71
2023/11/19 11:58:25;;;;;;;9.90;2.65;;;14.10;99.90;;;;;;5067119;28;20075;-70
2023/11/19 12:00:52;;;;;;;14.93;2.58;;;14.10;99.90;;;;;;5068570;28;20122;-71
2023/11/19 12:03:22;;;;;;;16.23;3.35;;;14.10;99.90;;;;;;5070306;28;20505;-72
2023/11/19 12:05:49;;;;;;;19.08;3.83;;;14.10;99.90;;;;;;5064542;28;20052;-71
2023/11/19 12:08:20;;;;;;;20.23;3.63;;;14.10;99.90;;;;;;5061397;28;20048;-71
2023/11/19 12:10:54;;;;;;;16.45;3.15;;;14.10;99.90;;;;;;5060830;28;20072;-72
2023/11/19 12:13:24;;;;;;;16.92;2.80;;;14.20;99.90;;;;;;5040273;28;20052;-72
2023/11/19 12:15:56;;;;;;;17.67;3.65;;;14.20;99.90;;;;;;5050169;28;20071;-72
2023/11/19 12:18:28;;;;;;;9.65;2.35;;;14.20;99.90;;;;;;5063057;28;20084;-71
2023/11/19 12:20:55;;;;;;;15.00;3.00;;;14.20;99.90;;;;;;5055995;28;20514;-71
2023/11/19 12:23:25;;;;;;;16.42;3.38;;;14.20;99.90;;;;;;5054263;28;20052;-71
2023/11/19 12:25:52;;;;;;;18.48;3.47;;;14.20;99.90;;;;;;5042611;28;20045;-71
2023/11/19 12:28:19;;;;;;;23.90;4.43;;;14.20;99.90;;;;;;5066806;28;20071;-71
2023/11/19 12:30:46;;;;;;;16.80;3.85;;;14.20;99.90;;;;;;5063302;28;20087;-71
2023/11/19 12:33:14;;;;;;;19.92;5.55;;;14.10;99.90;;;;;;5062519;28;20503;-71
2023/11/19 12:35:42;;;;;;;15.20;3.17;;;14.20;99.90;;;;;;5067487;28;20129;-71
2023/11/19 12:38:29;;;;;;;17.85;3.92;;;14.20;99.90;;;;;;5067602;28;20040;-71
2023/11/19 12:41:06;;;;;;;12.88;2.80;;;14.30;99.90;;;;;;5067257;28;20498;-71
2023/11/19 12:43:37;;;;;;;24.02;3.95;;;14.20;99.90;;;;;;5064003;28;20044;-71